createdAt,value
2023-01-18T00:03:33.706Z,58.09
2023-01-18T00:08:35.897Z,58.44
2023-01-18T00:13:37.389Z,60.89
2023-01-18T00:18:38.880Z,59.22
2023-01-18T00:23:40.344Z,59.58
2023-01-18T00:28:41.853Z,58.52
2023-01-18T00:33:44.222Z,58.69
2023-01-18T00:38:51.602Z,59.07
2023-01-18T00:43:53.085Z,60.40
2023-01-18T00:48:54.715Z,63.80
2023-01-18T00:53:56.197Z,61.09
2023-01-18T00:58:57.700Z,59.53
2023-01-18T01:04:17.670Z,60.20
2023-01-18T01:09:25.928Z,60.16
2023-01-18T01:14:46.137Z,59.49
2023-01-18T01:20:06.132Z,58.03
2023-01-18T01:25:26.293Z,59.76
2023-01-18T01:30:27.786Z,59.71
2023-01-18T01:35:29.260Z,58.98
2023-01-18T01:40:30.717Z,59.35
2023-01-18T01:45:32.232Z,59.39
2023-01-18T01:50:35.902Z,58.54
2023-01-18T01:55:37.365Z,58.18
2023-01-18T02:00:38.838Z,57.90
2023-01-18T02:05:42.546Z,57.85
2023-01-18T02:10:44.036Z,59.03
2023-01-18T02:16:25.502Z,58.59
2023-01-18T02:21:28.661Z,58.74
2023-01-18T02:26:50.934Z,61.58
2023-01-18T02:32:10.796Z,64.26
2023-01-18T02:37:25.402Z,63.01
2023-01-18T02:42:46.470Z,62.97
2023-01-18T02:47:47.947Z,61.94
2023-01-18T02:52:53.578Z,61.84
2023-01-18T02:57:56.905Z,64.18
2023-01-18T03:02:59.303Z,62.58
2023-01-18T03:08:10.903Z,60.78
2023-01-18T03:13:15.907Z,60.16
2023-01-18T03:18:23.313Z,60.09
2023-01-18T03:23:39.716Z,59.86
2023-01-18T03:29:06.687Z,59.87
2023-01-18T03:34:17.612Z,61.25
2023-01-18T03:39:28.401Z,61.91
2023-01-18T03:44:36.180Z,60.50
2023-01-18T03:49:37.665Z,59.35
2023-01-18T03:54:50.828Z,58.57
2023-01-18T03:59:52.285Z,58.34
2023-01-18T04:04:58.423Z,57.18
2023-01-18T04:10:00.109Z,55.88
2023-01-18T04:15:02.064Z,54.20
2023-01-18T04:20:03.937Z,53.32
2023-01-18T04:25:05.714Z,53.53
2023-01-18T04:30:07.852Z,56.51
2023-01-18T04:35:09.920Z,54.95
2023-01-18T04:40:11.979Z,54.31
2023-01-18T04:45:14.163Z,54.99
2023-01-18T04:50:15.889Z,55.66
2023-01-18T04:55:17.347Z,55.76
2023-01-18T05:00:18.885Z,54.48
2023-01-18T05:05:20.389Z,54.97
2023-01-18T05:10:21.848Z,55.90
2023-01-18T05:15:23.317Z,56.29
2023-01-18T05:20:24.801Z,56.10
2023-01-18T05:25:26.271Z,56.75
2023-01-18T05:30:27.752Z,61.56
2023-01-18T05:35:29.377Z,61.01
2023-01-18T05:40:30.842Z,58.99
2023-01-18T05:45:33.347Z,57.98
2023-01-18T05:50:34.830Z,56.79
2023-01-18T05:55:36.285Z,57.14
2023-01-18T06:00:37.771Z,56.87
2023-01-18T06:05:39.346Z,57.38
2023-01-18T06:10:40.850Z,56.77
2023-01-18T06:15:43.288Z,55.96
2023-01-18T06:20:44.770Z,56.48
2023-01-18T06:25:46.267Z,55.21
2023-01-18T06:30:47.915Z,56.01
2023-01-18T06:35:49.378Z,56.71
2023-01-18T06:40:50.837Z,56.44
2023-01-18T06:45:55.941Z,56.09
2023-01-18T06:50:58.089Z,55.41
2023-01-18T06:56:01.803Z,55.56
2023-01-18T07:01:03.467Z,56.41
2023-01-18T07:06:06.263Z,54.67
2023-01-18T07:11:08.554Z,55.58
2023-01-18T07:16:17.993Z,56.19
2023-01-18T07:21:20.206Z,55.92
2023-01-18T07:26:21.656Z,56.18
2023-01-18T07:31:24.985Z,57.10
2023-01-18T07:36:26.457Z,57.10
2023-01-18T07:41:30.063Z,56.83
2023-01-18T07:46:31.932Z,55.96
2023-01-18T07:51:33.512Z,55.89
2023-01-18T07:56:35.056Z,55.02
2023-01-18T08:01:36.587Z,55.72
2023-01-18T08:06:38.111Z,55.94
2023-01-18T08:11:39.595Z,56.01
2023-01-18T08:16:41.073Z,55.08
2023-01-18T08:21:42.578Z,55.39
2023-01-18T08:26:44.049Z,55.23
2023-01-18T08:31:45.537Z,53.71
2023-01-18T08:36:47.830Z,53.56
2023-01-18T08:41:49.501Z,53.69
2023-01-18T08:46:50.971Z,56.83
2023-01-18T08:51:52.434Z,57.35
2023-01-18T08:56:53.893Z,56.82
2023-01-18T09:01:55.375Z,54.92
2023-01-18T09:06:56.861Z,56.18
2023-01-18T09:11:58.613Z,56.72
2023-01-18T09:17:00.110Z,55.10
2023-01-18T09:22:01.689Z,54.41
2023-01-18T09:27:04.499Z,53.37
2023-01-18T09:32:08.056Z,53.37
2023-01-18T09:37:09.536Z,52.37
2023-01-18T09:42:21.964Z,51.86
2023-01-18T09:47:32.002Z,51.93
2023-01-18T09:52:57.416Z,51.96
2023-01-18T09:58:09.093Z,52.26
2023-01-18T10:03:31.959Z,52.36
2023-01-18T10:08:33.430Z,52.79
2023-01-18T10:13:57.288Z,52.50
2023-01-18T10:18:58.750Z,53.09
2023-01-18T10:24:55.271Z,53.46
2023-01-18T10:30:25.668Z,52.21
2023-01-18T10:35:29.932Z,52.22
2023-01-18T10:40:31.395Z,52.23
2023-01-18T10:45:34.526Z,52.03
2023-01-18T10:50:40.106Z,51.25
2023-01-18T10:55:41.679Z,52.93
2023-01-18T11:00:43.374Z,51.75
2023-01-18T11:05:44.988Z,52.30
2023-01-18T11:10:46.452Z,50.70
2023-01-18T11:15:48.156Z,50.81
2023-01-18T11:20:50.284Z,50.52
2023-01-18T11:26:29.609Z,50.42
2023-01-18T11:31:52.903Z,50.29
2023-01-18T11:36:54.557Z,49.26
2023-01-18T11:42:17.108Z,49.55
2023-01-18T11:47:47.362Z,49.46
2023-01-18T11:53:00.145Z,49.67
2023-01-18T11:58:02.030Z,49.34
2023-01-18T12:03:30.774Z,49.26
2023-01-18T12:08:40.161Z,49.37
2023-01-18T12:13:57.787Z,48.16
2023-01-18T12:19:41.716Z,48.86
2023-01-18T12:24:55.164Z,48.67
2023-01-18T12:30:14.014Z,49.62
2023-01-18T12:35:27.456Z,49.77
2023-01-18T12:40:47.440Z,49.21
2023-01-18T12:46:07.240Z,49.09
2023-01-18T12:51:14.044Z,48.63
2023-01-18T12:56:41.136Z,48.88
2023-01-18T13:01:44.538Z,49.63
2023-01-18T13:06:49.122Z,50.64
2023-01-18T13:11:50.590Z,50.63
2023-01-18T13:17:20.866Z,50.83
2023-01-18T13:22:44.749Z,49.80
2023-01-18T13:28:16.220Z,51.32
2023-01-18T13:33:22.117Z,50.80
2023-01-18T13:38:40.294Z,51.15
2023-01-18T13:43:44.971Z,50.62
2023-01-18T13:48:54.264Z,51.32
2023-01-18T13:53:55.832Z,50.83
2023-01-18T13:59:12.199Z,51.57
2023-01-18T14:04:23.430Z,51.52
2023-01-18T14:09:43.688Z,52.81
2023-01-18T14:14:52.481Z,52.04
2023-01-18T14:19:59.727Z,52.84
2023-01-18T14:25:34.845Z,51.90
2023-01-18T14:30:36.969Z,53.45
2023-01-18T14:35:38.928Z,53.86
2023-01-18T14:40:43.392Z,53.36
2023-01-18T14:46:11.431Z,54.15
2023-01-18T14:51:17.077Z,54.23
2023-01-18T14:56:20.335Z,54.13
2023-01-18T15:01:37.106Z,52.91
2023-01-18T15:06:41.485Z,52.32
2023-01-18T15:11:42.979Z,53.37
2023-01-18T15:16:45.144Z,52.99
2023-01-18T15:21:46.636Z,52.18
2023-01-18T15:27:01.601Z,54.23
2023-01-18T15:32:06.825Z,53.87
2023-01-18T15:37:12.161Z,54.27
2023-01-18T15:42:13.631Z,54.29
2023-01-18T15:47:16.797Z,53.96
2023-01-18T15:52:38.923Z,54.95
2023-01-18T15:57:40.391Z,53.83
2023-01-18T16:02:42.210Z,55.35
2023-01-18T16:07:43.787Z,54.82
2023-01-18T16:12:45.397Z,55.92
2023-01-18T16:17:46.870Z,54.75
2023-01-18T16:22:49.406Z,54.02
2023-01-18T16:27:52.645Z,54.69
2023-01-18T16:32:54.120Z,55.39
2023-01-18T16:37:57.739Z,54.39
2023-01-18T16:43:07.077Z,54.95
2023-01-18T16:48:10.370Z,55.74
2023-01-18T16:53:12.287Z,54.89
2023-01-18T16:58:15.114Z,55.80
2023-01-18T17:03:16.611Z,52.94
2023-01-18T17:08:18.127Z,55.33
2023-01-18T17:13:19.875Z,55.90
2023-01-18T17:18:23.999Z,55.19
2023-01-18T17:23:25.671Z,55.64
2023-01-18T17:28:28.349Z,56.22
2023-01-18T17:33:30.528Z,57.20
2023-01-18T17:43:34.890Z,56.60
2023-01-18T17:48:36.453Z,56.49
2023-01-18T17:53:38.970Z,56.95
2023-01-18T17:58:40.597Z,57.33
2023-01-18T18:03:47.626Z,59.33
2023-01-18T18:08:49.315Z,60.89
2023-01-18T18:13:53.170Z,60.26
2023-01-18T18:19:09.872Z,62.52
2023-01-18T18:24:23.373Z,63.17
2023-01-18T18:29:26.118Z,63.16
2023-01-18T18:34:30.715Z,63.53
2023-01-18T18:39:51.682Z,62.94
2023-01-18T18:44:53.146Z,62.82
2023-01-18T18:49:54.710Z,63.44
2023-01-18T18:54:56.176Z,63.05
2023-01-18T18:59:58.459Z,63.82
2023-01-18T19:05:00.012Z,62.44
2023-01-18T19:10:01.477Z,61.66
2023-01-18T19:15:03.003Z,63.88
2023-01-18T19:20:05.189Z,64.04
2023-01-18T19:25:07.344Z,64.57
2023-01-18T19:30:18.612Z,64.40
2023-01-18T19:35:20.116Z,64.49
2023-01-18T19:40:21.715Z,64.53
2023-01-18T19:45:28.205Z,64.74
2023-01-18T19:50:30.103Z,64.89
2023-01-18T19:55:31.576Z,65.41
2023-01-18T20:00:33.177Z,66.05
2023-01-18T20:05:34.663Z,66.02
2023-01-18T20:10:36.130Z,65.20
2023-01-18T20:15:40.829Z,65.49
2023-01-18T20:20:42.293Z,64.54
2023-01-18T20:25:43.758Z,65.33
2023-01-18T20:30:49.300Z,67.05
2023-01-18T20:35:52.148Z,67.10
2023-01-18T20:40:54.844Z,66.79
2023-01-18T20:46:00.904Z,68.13
2023-01-18T20:51:02.576Z,67.82
2023-01-18T20:56:06.229Z,67.78
2023-01-18T21:01:15.496Z,68.70
2023-01-18T21:06:17.183Z,68.60
2023-01-18T21:11:22.698Z,68.71
2023-01-18T21:16:24.470Z,68.26
2023-01-18T21:21:26.876Z,68.02
2023-01-18T21:26:28.325Z,68.10
2023-01-18T21:31:29.843Z,67.89
2023-01-18T21:36:31.583Z,67.73
2023-01-18T21:41:51.706Z,68.12
2023-01-18T21:46:53.172Z,67.88
2023-01-18T21:52:12.959Z,67.50
2023-01-18T21:57:14.426Z,67.33
2023-01-18T22:02:16.034Z,67.34
2023-01-18T22:07:17.548Z,66.01
2023-01-18T22:12:19.041Z,64.56
2023-01-18T22:17:20.787Z,65.48
2023-01-18T22:22:22.398Z,65.74
2023-01-18T22:27:23.901Z,65.01
2023-01-18T22:32:25.407Z,66.39
2023-01-18T22:37:27.665Z,65.39
2023-01-18T22:42:29.232Z,64.73
2023-01-18T22:47:30.740Z,62.30
2023-01-18T22:52:32.293Z,61.03
2023-01-18T22:57:33.763Z,59.92
2023-01-18T23:02:35.226Z,57.15
2023-01-18T23:07:36.777Z,56.91
2023-01-18T23:12:39.004Z,57.03
2023-01-18T23:17:40.576Z,57.98
2023-01-18T23:22:42.050Z,58.51
2023-01-18T23:27:43.521Z,59.83
2023-01-18T23:32:44.987Z,57.74
2023-01-18T23:37:46.689Z,57.32
2023-01-18T23:43:06.659Z,59.09
2023-01-18T23:48:31.010Z,62.05
2023-01-18T23:53:50.721Z,61.53
2023-01-18T23:58:52.187Z,61.38
